Terminal Aerodrome Forecast
Issued by NWS Northern Indiana

Home | Current Version | Previous Version | Text Only | Print | Product List | Glossary Off
Versions: 1 2 3 4 5 6 7 8 9 10 11 12 13 14 15 16 17 18 19 20 21 22

171
FTUS43 KIWX 211120
TAFFWA
TAF
KFWA 211120Z 2112/2212 20007KT P6SM -SHRA SCT060 BKN120
     FM211300 21007KT P6SM BKN150
     FM211700 23008KT P6SM SCT035 BKN200
     FM211800 24009KT P6SM VCTS SCT035 BKN100CB
     FM212300 22007KT P6SM BKN200
     FM220600 20006KT P6SM VCTS BKN100CB=

USA.gov is the U.S. government's official web portal to all federal, state and local government web resources and services.